Time;durP1;ratioP1;P1;durP2;ratioP2;P2;SDS_P1;SDS_P2;PMS_P1;PMS_P2;Temp;Humidity;BMP_temperature;BMP_pressure;BME280_temperature;BME280_humidity;BME280_pressure;Samples;Min_cycle;Max_cycle;Signal;HPM_P1;HPM_P2
2021/12/22 00:00:20;;;;;;;14.80;7.03;;;0.00;99.90;;;;;;5025026;28;20068;-80
2021/12/22 00:02:46;;;;;;;12.38;6.38;;;0.00;99.90;;;;;;5039527;28;20087;-80
2021/12/22 00:05:22;;;;;;;14.80;7.30;;;0.00;99.90;;;;;;5024010;28;20085;-82
2021/12/22 00:07:48;;;;;;;14.23;6.90;;;0.00;99.90;;;;;;5017682;28;20060;-79
2021/12/22 00:10:14;;;;;;;12.00;6.80;;;-0.10;99.90;;;;;;5039729;28;20022;-80
2021/12/22 00:12:40;;;;;;;13.82;7.15;;;-0.10;99.90;;;;;;5022046;28;20060;-79
2021/12/22 00:15:06;;;;;;;17.13;7.10;;;-0.10;99.90;;;;;;5026108;28;20030;-81
2021/12/22 00:17:31;;;;;;;13.95;6.85;;;-0.10;99.90;;;;;;5022159;28;20046;-80
2021/12/22 00:19:58;;;;;;;11.02;6.38;;;0.10;99.90;;;;;;5022191;28;20671;-80
2021/12/22 00:22:23;;;;;;;13.75;6.75;;;-0.10;99.90;;;;;;5024376;28;20041;-79
2021/12/22 00:24:49;;;;;;;12.48;6.70;;;-0.20;99.90;;;;;;5022630;28;20041;-78
2021/12/22 00:27:15;;;;;;;14.88;7.45;;;-0.20;99.90;;;;;;5027520;28;20026;-81
2021/12/22 00:29:44;;;;;;;14.30;7.00;;;-0.20;99.90;;;;;;5028884;28;20041;-79
2021/12/22 00:32:13;;;;;;;15.57;7.05;;;-0.20;99.90;;;;;;5025039;28;20049;-79
2021/12/22 00:34:49;;;;;;;13.20;7.18;;;-0.30;99.90;;;;;;5026911;28;20091;-81
2021/12/22 00:37:22;;;;;;;15.82;7.50;;;-0.30;99.90;;;;;;5026526;28;20041;-81
2021/12/22 00:39:50;;;;;;;12.95;6.25;;;-0.30;99.90;;;;;;5047181;28;20049;-80
2021/12/22 00:42:16;;;;;;;15.20;6.72;;;-0.30;99.90;;;;;;5028731;28;20025;-80
2021/12/22 00:44:43;;;;;;;15.18;7.38;;;0.40;99.90;;;;;;5028487;28;20052;-79
2021/12/22 00:47:09;;;;;;;15.30;6.63;;;-0.30;99.90;;;;;;5026268;28;20492;-80
2021/12/22 00:49:35;;;;;;;14.65;6.70;;;-0.30;99.90;;;;;;5044929;28;20022;-80
2021/12/22 00:52:02;;;;;;;19.75;8.27;;;-0.30;99.90;;;;;;5031442;28;20460;-79
2021/12/22 00:54:28;;;;;;;14.23;7.70;;;;;;;;;;5028680;28;20030;-80
2021/12/22 00:57:00;;;;;;;14.95;7.05;;;-0.30;99.90;;;;;;5030576;28;20426;-81
2021/12/22 00:59:26;;;;;;;15.13;7.65;;;-0.30;99.90;;;;;;5029433;28;20507;-80
2021/12/22 01:01:52;;;;;;;15.80;7.80;;;-0.30;99.90;;;;;;5027791;28;20060;-80
2021/12/22 01:04:18;;;;;;;14.93;6.95;;;-0.30;99.90;;;;;;5028457;28;20041;-81
2021/12/22 01:06:44;;;;;;;16.35;7.47;;;-0.30;99.90;;;;;;5023072;28;20037;-80
2021/12/22 01:09:10;;;;;;;16.60;7.25;;;-0.30;99.90;;;;;;5031996;28;20032;-80
2021/12/22 01:11:35;;;;;;;15.48;7.70;;;-0.20;99.90;;;;;;5027751;28;20045;-80
2021/12/22 01:14:02;;;;;;;15.55;7.70;;;-0.20;99.90;;;;;;5026527;28;20029;-80
2021/12/22 01:16:28;;;;;;;14.98;7.63;;;-0.20;99.90;;;;;;5028171;28;20030;-79
2021/12/22 01:18:55;;;;;;;13.35;7.25;;;-0.20;99.90;;;;;;5031655;28;20028;-80
2021/12/22 01:21:28;;;;;;;14.32;7.10;;;-0.20;99.90;;;;;;5032145;28;20085;-80
2021/12/22 01:24:09;;;;;;;18.42;7.13;;;;;;;;;;5025119;28;20097;-80
2021/12/22 01:26:40;;;;;;;16.27;6.95;;;-0.20;99.90;;;;;;5041910;28;20039;-81
2021/12/22 01:29:06;;;;;;;15.43;6.80;;;-0.20;99.90;;;;;;5030808;28;20033;-79
2021/12/22 01:31:31;;;;;;;14.85;7.45;;;-0.40;99.90;;;;;;5028506;28;20029;-80
2021/12/22 01:33:57;;;;;;;14.60;6.85;;;-0.20;99.90;;;;;;5025767;28;20571;-80
2021/12/22 01:36:23;;;;;;;15.85;6.93;;;-0.20;99.90;;;;;;5024861;28;20045;-79
2021/12/22 01:38:48;;;;;;;14.60;7.07;;;-0.20;99.90;;;;;;5031972;28;20065;-81
2021/12/22 01:41:14;;;;;;;14.00;7.05;;;-0.30;99.90;;;;;;5027667;28;20494;-80
2021/12/22 01:43:40;;;;;;;11.57;6.85;;;-0.40;99.90;;;;;;5025999;28;20057;-83
2021/12/22 01:46:33;;;;;;;19.52;7.97;;;-0.40;99.90;;;;;;5025797;28;20135;-79
2021/12/22 01:49:14;;;;;;;14.60;7.45;;;-0.40;99.90;;;;;;5042173;28;20029;-78
2021/12/22 01:51:49;;;;;;;19.20;8.35;;;-0.50;99.90;;;;;;5026806;28;20040;-81
2021/12/22 01:54:45;;;;;;;14.88;7.07;;;-0.50;99.90;;;;;;5023003;28;20057;-79
2021/12/22 01:57:12;;;;;;;13.50;7.55;;;-0.50;99.90;;;;;;5029393;28;20021;-78
2021/12/22 01:59:42;;;;;;;15.95;7.90;;;-0.60;99.90;;;;;;5029319;28;20079;-78
2021/12/22 02:02:11;;;;;;;15.63;7.80;;;-0.60;99.90;;;;;;5026639;28;20033;-79
2021/12/22 02:04:38;;;;;;;16.20;7.55;;;-0.60;99.90;;;;;;5026985;28;20026;-79
2021/12/22 02:07:05;;;;;;;18.13;7.97;;;-0.60;99.90;;;;;;5026106;28;20029;-80
2021/12/22 02:12:01;;;;;;;15.95;7.10;;;-0.60;99.90;;;;;;5030469;28;20018;-80
2021/12/22 02:14:26;;;;;;;15.38;7.40;;;-0.40;99.90;;;;;;5026992;28;20580;-80
2021/12/22 02:16:52;;;;;;;17.08;7.72;;;-0.50;99.90;;;;;;5042343;28;20057;-81
2021/12/22 02:19:18;;;;;;;16.17;7.68;;;-0.50;99.90;;;;;;5028014;28;20159;-80
2021/12/22 02:21:50;;;;;;;16.45;7.03;;;-0.50;99.90;;;;;;5023653;28;20041;-80
2021/12/22 02:24:16;;;;;;;14.75;6.80;;;;;;;;;;5027797;28;21022;-81
2021/12/22 02:26:49;;;;;;;14.98;7.65;;;-0.40;99.90;;;;;;5026434;28;20029;-79
2021/12/22 02:29:33;;;;;;;16.25;7.38;;;-0.50;99.90;;;;;;5030210;28;20065;-80
2021/12/22 02:32:24;;;;;;;17.52;8.35;;;-0.40;99.90;;;;;;5041574;28;20030;-80
2021/12/22 02:34:52;;;;;;;15.30;7.90;;;-0.20;99.90;;;;;;5025117;28;20037;-80
2021/12/22 02:37:25;;;;;;;19.13;7.63;;;-0.60;99.90;;;;;;5031707;28;20087;-82
2021/12/22 02:40:10;;;;;;;14.48;7.28;;;-0.60;99.90;;;;;;5028931;28;20028;-83
2021/12/22 02:42:37;;;;;;;14.95;8.18;;;-0.40;99.90;;;;;;5041217;28;20041;-81
2021/12/22 02:45:07;;;;;;;18.48;8.52;;;0.80;99.90;;;;;;5028702;28;20039;-80
2021/12/22 02:47:32;;;;;;;16.77;7.85;;;-0.40;99.90;;;;;;5025179;28;20017;-80
2021/12/22 02:49:58;;;;;;;14.50;8.05;;;-0.40;99.90;;;;;;5027063;28;20037;-80
2021/12/22 02:52:31;;;;;;;14.20;7.22;;;-0.60;99.90;;;;;;5024771;28;20096;-80
2021/12/22 02:54:57;;;;;;;16.33;8.45;;;-0.70;99.90;;;;;;5025591;28;20028;-83
2021/12/22 02:57:34;;;;;;;14.45;7.63;;;-0.70;99.90;;;;;;5029039;28;20025;-80
2021/12/22 03:05:10;;;;;;;17.60;7.72;;;-0.70;99.90;;;;;;5023120;28;20040;-78
2021/12/22 03:07:37;;;;;;;16.52;7.75;;;-0.70;99.90;;;;;;5022738;28;20037;-78
2021/12/22 03:10:11;;;;;;;18.58;8.88;;;-0.70;99.90;;;;;;5026385;28;20079;-79
2021/12/22 03:12:37;;;;;;;14.00;7.55;;;-0.70;99.90;;;;;;5026291;28;20506;-81
2021/12/22 03:15:05;;;;;;;17.00;8.82;;;-0.70;99.90;;;;;;5029135;28;20072;-79
2021/12/22 03:17:31;;;;;;;15.77;8.40;;;-0.70;99.90;;;;;;5026723;28;20022;-79
2021/12/22 03:19:57;;;;;;;17.02;8.32;;;-0.70;99.90;;;;;;5037469;28;20021;-79
2021/12/22 03:22:23;;;;;;;18.38;8.95;;;-0.70;99.90;;;;;;5028793;28;20112;-80
2021/12/22 03:24:50;;;;;;;18.88;9.35;;;-0.70;99.90;;;;;;5026574;28;20091;-79
2021/12/22 03:27:17;;;;;;;16.58;7.93;;;-0.70;99.90;;;;;;5026625;28;20044;-81
2021/12/22 03:29:43;;;;;;;15.48;8.55;;;-0.70;99.90;;;;;;5025816;28;20399;-79
2021/12/22 03:32:10;;;;;;;18.42;8.55;;;-0.80;99.90;;;;;;5025552;28;20025;-81
2021/12/22 03:34:36;;;;;;;14.68;8.48;;;-0.70;99.90;;;;;;5022730;28;20021;-80
2021/12/22 03:37:02;;;;;;;19.10;8.80;;;0.40;99.90;;;;;;5038601;28;20080;-80
2021/12/22 03:39:28;;;;;;;16.73;8.30;;;-0.70;99.90;;;;;;5038165;28;20033;-80
2021/12/22 03:41:58;;;;;;;18.60;9.65;;;-0.70;99.90;;;;;;5029036;28;20025;-80
2021/12/22 03:44:23;;;;;;;16.83;8.60;;;-0.70;99.90;;;;;;5028127;28;20064;-78
2021/12/22 03:46:51;;;;;;;17.45;8.15;;;-0.70;99.90;;;;;;5026564;28;20033;-79
2021/12/22 03:49:17;;;;;;;16.13;8.20;;;-0.70;99.90;;;;;;5027416;28;20399;-79
2021/12/22 03:51:43;;;;;;;15.85;8.30;;;-0.70;99.90;;;;;;5027928;28;20048;-79
2021/12/22 03:54:10;;;;;;;17.70;8.20;;;-0.80;99.90;;;;;;5029239;28;20025;-80
2021/12/22 03:56:36;;;;;;;19.20;9.30;;;-0.70;99.90;;;;;;5023353;28;20033;-79
2021/12/22 03:59:03;;;;;;;17.75;9.13;;;-0.80;99.90;;;;;;5043145;28;20119;-80
2021/12/22 04:01:28;;;;;;;21.63;10.02;;;-0.70;99.90;;;;;;5029526;28;20496;-80
2021/12/22 04:03:58;;;;;;;20.58;10.10;;;-0.80;99.90;;;;;;5030435;28;20040;-79
2021/12/22 04:06:24;;;;;;;16.20;9.38;;;-0.80;99.90;;;;;;5043435;28;20542;-78
2021/12/22 04:08:49;;;;;;;15.73;9.00;;;-0.80;99.90;;;;;;5036936;28;20053;-81
2021/12/22 04:11:15;;;;;;;16.90;9.32;;;-0.80;99.90;;;;;;5029640;28;20479;-77
2021/12/22 04:13:41;;;;;;;20.23;9.30;;;-0.80;99.90;;;;;;5030583;28;20068;-80
2021/12/22 04:16:06;;;;;;;20.08;9.02;;;-0.90;99.90;;;;;;5029819;28;20048;-79
2021/12/22 04:18:32;;;;;;;16.83;8.68;;;-0.20;99.90;;;;;;5029718;28;20044;-80
2021/12/22 04:20:58;;;;;;;19.30;8.85;;;-0.90;99.90;;;;;;5031937;28;20038;-79
2021/12/22 04:23:23;;;;;;;19.80;9.35;;;-0.90;99.90;;;;;;5037317;28;20033;-79
2021/12/22 04:25:49;;;;;;;17.10;8.73;;;-0.90;99.90;;;;;;5035083;28;20048;-77
2021/12/22 04:28:15;;;;;;;17.92;9.23;;;-0.90;99.90;;;;;;5031727;28;20060;-78
2021/12/22 04:30:48;;;;;;;15.07;8.32;;;-0.90;99.90;;;;;;5029683;28;20045;-79
2021/12/22 04:33:14;;;;;;;17.20;9.00;;;-1.00;99.90;;;;;;5026415;28;20033;-78
2021/12/22 04:35:40;;;;;;;13.63;7.97;;;-1.00;99.90;;;;;;5026517;28;20052;-78
2021/12/22 04:38:06;;;;;;;19.88;8.55;;;-1.00;99.90;;;;;;5025135;28;20483;-77
2021/12/22 04:40:32;;;;;;;19.77;9.48;;;-1.10;99.90;;;;;;5028542;28;20032;-79
2021/12/22 04:42:58;;;;;;;18.38;9.10;;;-1.00;99.90;;;;;;5028415;28;20029;-78
2021/12/22 04:45:23;;;;;;;17.15;9.02;;;-1.00;99.90;;;;;;5027161;28;20029;-77
2021/12/22 04:47:51;;;;;;;18.98;8.82;;;-0.90;99.90;;;;;;5041451;28;21986;-78
2021/12/22 04:50:22;;;;;;;20.77;9.63;;;-1.00;99.90;;;;;;5029305;28;20035;-79
2021/12/22 04:52:59;;;;;;;19.33;8.85;;;-1.00;99.90;;;;;;5023200;28;20348;-80
2021/12/22 04:55:26;;;;;;;16.02;8.50;;;-1.00;99.90;;;;;;5030049;28;20114;-81
2021/12/22 04:57:54;;;;;;;19.98;9.52;;;-1.00;99.90;;;;;;5027851;28;20256;-79
2021/12/22 05:00:21;;;;;;;26.45;10.65;;;-1.00;99.90;;;;;;5034840;28;20032;-79
2021/12/22 05:02:48;;;;;;;20.27;9.30;;;-1.00;99.90;;;;;;5022290;28;20025;-79
2021/12/22 05:05:14;;;;;;;18.95;9.73;;;-1.00;99.90;;;;;;5027218;28;20033;-79
2021/12/22 05:07:39;;;;;;;16.75;9.25;;;-1.00;99.90;;;;;;5023296;28;20491;-80
2021/12/22 05:10:06;;;;;;;17.00;8.77;;;-1.00;99.90;;;;;;5026271;28;20026;-80
2021/12/22 05:12:32;;;;;;;20.38;9.60;;;-1.00;99.90;;;;;;5026350;28;20022;-79
2021/12/22 05:14:58;;;;;;;16.80;9.50;;;-1.00;99.90;;;;;;5026711;28;20606;-80
2021/12/22 05:17:38;;;;;;;16.75;8.32;;;-1.00;99.90;;;;;;5026307;28;20046;-80
2021/12/22 05:20:05;;;;;;;16.67;9.32;;;-0.90;99.90;;;;;;5024818;28;20483;-80
2021/12/22 05:22:32;;;;;;;15.65;9.07;;;-0.90;99.90;;;;;;5022273;28;20048;-81
2021/12/22 05:25:02;;;;;;;15.93;8.03;;;1.10;99.90;;;;;;5028109;28;20049;-79
2021/12/22 05:27:28;;;;;;;18.05;8.65;;;-0.90;99.90;;;;;;5026133;28;20042;-77
2021/12/22 05:29:54;;;;;;;21.52;9.38;;;-0.90;99.90;;;;;;5025374;28;20041;-79
2021/12/22 05:32:23;;;;;;;18.70;8.73;;;-1.00;99.90;;;;;;5022875;28;20625;-80
2021/12/22 05:34:48;;;;;;;17.63;8.95;;;-1.00;99.90;;;;;;5025579;28;20018;-79
2021/12/22 05:37:14;;;;;;;18.33;9.35;;;-1.10;99.90;;;;;;5022117;28;20040;-78
2021/12/22 05:39:39;;;;;;;17.98;9.40;;;-1.10;99.90;;;;;;5022093;28;20092;-78
2021/12/22 05:42:05;;;;;;;16.55;9.30;;;-1.10;99.90;;;;;;5022800;28;20029;-77
2021/12/22 05:44:31;;;;;;;17.17;8.38;;;-1.10;99.90;;;;;;5021978;28;20449;-80
2021/12/22 05:46:57;;;;;;;19.02;9.50;;;-0.50;99.90;;;;;;5026922;28;20052;-78
2021/12/22 05:49:22;;;;;;;19.73;9.55;;;-1.20;99.90;;;;;;5027363;28;20538;-81
2021/12/22 05:51:48;;;;;;;16.67;9.13;;;-1.20;99.90;;;;;;5025353;28;20040;-78
2021/12/22 05:54:13;;;;;;;20.98;9.52;;;-1.20;99.90;;;;;;5026208;28;20029;-80
2021/12/22 05:56:39;;;;;;;17.20;8.82;;;-1.20;99.90;;;;;;5030427;28;20084;-78
2021/12/22 05:59:05;;;;;;;16.63;9.65;;;-1.20;99.90;;;;;;5029255;28;20032;-79
2021/12/22 06:01:30;;;;;;;19.02;9.65;;;-1.30;99.90;;;;;;5032692;28;20036;-78
2021/12/22 06:04:00;;;;;;;18.92;9.90;;;-1.30;99.90;;;;;;5024289;28;20037;-81
2021/12/22 06:06:27;;;;;;;18.52;9.68;;;-0.60;99.90;;;;;;5023552;28;20720;-80
2021/12/22 06:08:53;;;;;;;19.15;9.73;;;-1.20;99.90;;;;;;5026572;28;20043;-79
2021/12/22 06:11:19;;;;;;;20.38;10.48;;;0.00;99.90;;;;;;5023064;28;20040;-79
2021/12/22 06:13:45;;;;;;;21.08;10.13;;;-1.30;99.90;;;;;;5029354;28;20460;-80
2021/12/22 06:16:11;;;;;;;18.88;10.07;;;-0.70;99.90;;;;;;5030783;28;20503;-80
2021/12/22 06:18:42;;;;;;;18.65;9.93;;;-1.50;99.90;;;;;;5025047;28;20057;-80
2021/12/22 06:21:08;;;;;;;25.85;10.57;;;;;;;;;;5029457;28;20513;-81
2021/12/22 06:23:34;;;;;;;25.67;10.73;;;-1.60;99.90;;;;;;5025736;28;20061;-80
2021/12/22 06:26:00;;;;;;;21.48;11.50;;;-1.60;99.90;;;;;;5027490;28;20041;-81
2021/12/22 06:28:25;;;;;;;22.48;10.55;;;-1.70;99.90;;;;;;5024780;28;20029;-80
2021/12/22 06:30:51;;;;;;;21.10;11.25;;;-1.70;99.90;;;;;;5032021;28;20450;-81
2021/12/22 06:33:16;;;;;;;24.77;11.60;;;-1.70;99.90;;;;;;5023817;28;20057;-78
2021/12/22 06:35:42;;;;;;;20.65;9.85;;;-1.70;99.90;;;;;;5024437;28;20030;-80
2021/12/22 06:38:08;;;;;;;24.35;11.25;;;-1.70;99.90;;;;;;5026501;28;20028;-80
2021/12/22 06:40:33;;;;;;;19.33;10.48;;;-1.70;99.90;;;;;;5027239;28;20034;-79
2021/12/22 06:42:59;;;;;;;22.95;11.05;;;-1.70;99.90;;;;;;5025081;28;20519;-82
2021/12/22 06:45:25;;;;;;;23.00;11.48;;;;;;;;;;5025529;28;20146;-80
2021/12/22 06:47:52;;;;;;;21.88;11.63;;;-1.80;99.90;;;;;;5027799;28;20037;-80
2021/12/22 06:50:18;;;;;;;22.63;11.10;;;-1.80;99.90;;;;;;5022182;28;20125;-81
2021/12/22 06:52:44;;;;;;;23.35;11.70;;;-1.90;99.90;;;;;;5027280;28;20113;-79
2021/12/22 06:55:10;;;;;;;22.30;10.80;;;;;;;;;;5028380;28;20268;-81
2021/12/22 06:57:36;;;;;;;21.67;11.25;;;-1.90;99.90;;;;;;5025002;28;20040;-80
2021/12/22 07:00:05;;;;;;;23.30;11.15;;;-1.90;99.90;;;;;;5020289;28;20407;-81
2021/12/22 07:02:35;;;;;;;24.13;11.18;;;-1.80;99.90;;;;;;5026881;28;20040;-80
2021/12/22 07:05:01;;;;;;;19.65;10.55;;;-1.80;99.90;;;;;;5026022;28;20040;-80
2021/12/22 07:07:26;;;;;;;20.23;10.05;;;-1.60;99.90;;;;;;5025494;28;20033;-80
2021/12/22 07:09:52;;;;;;;21.75;10.25;;;-1.80;99.90;;;;;;5025413;28;20467;-81
2021/12/22 07:12:18;;;;;;;21.10;10.70;;;;;;;;;;5038654;28;20025;-81
2021/12/22 07:14:44;;;;;;;21.25;11.27;;;-1.70;99.90;;;;;;5021909;28;20034;-84
2021/12/22 07:17:10;;;;;;;24.05;11.18;;;;;;;;;;5023444;28;20094;-81
2021/12/22 07:19:36;;;;;;;22.83;11.45;;;-1.70;99.90;;;;;;5022406;28;20034;-81
2021/12/22 07:22:02;;;;;;;22.25;11.65;;;-1.70;99.90;;;;;;5040390;28;20036;-81
2021/12/22 07:24:27;;;;;;;20.60;11.15;;;-1.70;99.90;;;;;;5024685;28;20096;-81
2021/12/22 07:26:53;;;;;;;21.95;11.02;;;-1.70;99.90;;;;;;5031131;28;20033;-81
2021/12/22 07:29:18;;;;;;;24.25;11.70;;;-1.70;99.90;;;;;;5029100;28;20120;-81
2021/12/22 07:31:44;;;;;;;24.83;12.52;;;-1.70;99.90;;;;;;5029096;28;20025;-81
2021/12/22 07:34:22;;;;;;;22.95;11.70;;;-1.70;99.90;;;;;;5023295;28;20044;-81
2021/12/22 07:36:56;;;;;;;23.17;10.32;;;-1.70;99.90;;;;;;5025558;28;20597;-82
2021/12/22 07:39:22;;;;;;;21.63;10.80;;;;;;;;;;5024971;28;20022;-81
2021/12/22 07:41:47;;;;;;;23.20;11.45;;;-1.80;99.90;;;;;;5023407;28;20050;-81
2021/12/22 07:44:14;;;;;;;24.73;11.27;;;-1.70;99.90;;;;;;5033204;28;20073;-82
2021/12/22 07:46:40;;;;;;;22.77;10.85;;;;;;;;;;5027790;28;20037;-81
2021/12/22 07:49:06;;;;;;;32.03;16.25;;;;;;;;;;5027542;28;20030;-82
2021/12/22 07:51:32;;;;;;;22.05;10.98;;;-1.70;99.90;;;;;;5026864;28;20046;-80
2021/12/22 07:53:58;;;;;;;24.10;11.70;;;;;;;;;;5029874;28;20040;-80
2021/12/22 07:56:24;;;;;;;24.65;12.82;;;;;;;;;;5026594;28;20029;-80
2021/12/22 07:58:50;;;;;;;25.80;11.70;;;-1.80;99.90;;;;;;5029331;28;20037;-81
2021/12/22 08:01:16;;;;;;;25.65;11.25;;;;;;;;;;5027802;28;20089;-83
2021/12/22 08:03:42;;;;;;;21.98;11.15;;;-1.80;99.90;;;;;;5021250;28;20524;-81
2021/12/22 08:06:08;;;;;;;26.80;11.63;;;-1.80;99.90;;;;;;5019830;28;21161;-83
2021/12/22 08:08:33;;;;;;;22.63;11.02;;;-1.80;99.90;;;;;;5022444;28;20029;-82
2021/12/22 08:10:59;;;;;;;27.27;12.48;;;-1.80;99.90;;;;;;5018750;28;20033;-82
2021/12/22 08:13:24;;;;;;;24.63;11.80;;;-1.80;99.90;;;;;;5020903;28;20037;-81
2021/12/22 08:15:50;;;;;;;24.00;11.70;;;-1.80;99.90;;;;;;5024161;28;20037;-81
2021/12/22 08:18:16;;;;;;;27.52;11.35;;;-1.70;99.90;;;;;;5037552;28;20045;-80
2021/12/22 08:20:42;;;;;;;22.10;12.13;;;;;;;;;;5024236;28;20041;-82
2021/12/22 08:23:07;;;;;;;24.90;12.23;;;-1.70;99.90;;;;;;5021516;28;20025;-81
2021/12/22 08:25:33;;;;;;;23.08;12.27;;;-1.70;99.90;;;;;;5022125;28;20040;-82
2021/12/22 08:27:59;;;;;;;25.10;11.95;;;-1.70;99.90;;;;;;5020503;28;20033;-80
2021/12/22 08:30:24;;;;;;;20.85;11.52;;;-1.70;99.90;;;;;;5041885;28;20087;-81
2021/12/22 08:32:50;;;;;;;23.83;11.07;;;-1.60;99.90;;;;;;5021815;28;20030;-80
2021/12/22 08:35:17;;;;;;;22.98;11.27;;;-1.60;99.90;;;;;;5025367;28;20033;-80
2021/12/22 08:40:27;;;;;;;26.67;11.18;;;-0.20;99.90;;;;;;5027977;28;20032;-80
2021/12/22 08:42:53;;;;;;;22.88;11.57;;;-1.50;99.90;;;;;;5020410;28;20025;-79
2021/12/22 08:45:19;;;;;;;32.63;12.35;;;-1.50;99.90;;;;;;5022324;28;20025;-82
2021/12/22 08:47:45;;;;;;;19.85;10.95;;;-1.50;99.90;;;;;;5023062;28;20017;-82
2021/12/22 08:50:13;;;;;;;22.27;11.88;;;-1.40;99.90;;;;;;5025287;28;20503;-83
2021/12/22 08:52:39;;;;;;;22.15;11.50;;;-1.30;99.90;;;;;;5044796;28;20054;-81
2021/12/22 08:55:06;;;;;;;25.98;11.88;;;-1.20;99.90;;;;;;5030529;28;20471;-81
2021/12/22 08:57:34;;;;;;;22.30;11.70;;;-1.20;99.90;;;;;;5027892;28;20606;-81
2021/12/22 09:00:01;;;;;;;21.58;11.75;;;-1.20;99.90;;;;;;5026173;28;20117;-83
2021/12/22 09:02:29;;;;;;;26.73;12.50;;;-1.20;99.90;;;;;;5028079;28;20034;-81
2021/12/22 09:04:55;;;;;;;21.83;11.95;;;-1.10;99.90;;;;;;5024556;28;20096;-81
2021/12/22 09:07:21;;;;;;;27.65;12.02;;;-1.10;99.90;;;;;;5024052;28;20079;-80
2021/12/22 09:09:46;;;;;;;24.40;12.15;;;-1.10;99.90;;;;;;5024311;28;20033;-79
2021/12/22 09:12:12;;;;;;;30.25;13.15;;;-1.10;99.90;;;;;;5025325;28;20028;-81
2021/12/22 09:14:38;;;;;;;22.70;12.45;;;;;;;;;;5020903;28;20029;-82
2021/12/22 09:17:04;;;;;;;23.30;11.88;;;-1.80;99.90;;;;;;5039762;28;20115;-80
2021/12/22 09:19:29;;;;;;;21.90;11.90;;;-0.90;99.90;;;;;;5026557;28;20021;-80
2021/12/22 09:21:58;;;;;;;20.23;11.80;;;-0.90;99.90;;;;;;5026467;28;20021;-81
2021/12/22 09:24:24;;;;;;;22.63;12.00;;;-0.80;99.90;;;;;;5021960;28;20033;-80
2021/12/22 09:26:49;;;;;;;19.50;11.50;;;-0.70;99.90;;;;;;5025416;28;20511;-81
2021/12/22 09:29:15;;;;;;;20.70;11.32;;;-0.60;99.90;;;;;;5026394;28;20029;-82
2021/12/22 09:31:41;;;;;;;22.88;11.88;;;-0.70;99.90;;;;;;5025455;28;20033;-81
2021/12/22 09:34:10;;;;;;;25.05;12.43;;;-0.70;99.90;;;;;;5023989;28;20080;-80
2021/12/22 09:36:36;;;;;;;21.67;11.07;;;-0.60;99.90;;;;;;5022907;28;20072;-80
2021/12/22 09:39:04;;;;;;;21.33;11.55;;;-0.20;99.90;;;;;;5014150;28;20049;-80
2021/12/22 09:41:33;;;;;;;20.48;11.32;;;-0.40;99.90;;;;;;5025218;28;20037;-80
2021/12/22 09:43:59;;;;;;;21.77;11.63;;;-0.50;99.90;;;;;;5022603;28;20125;-79
2021/12/22 09:46:25;;;;;;;25.65;12.18;;;-0.50;99.90;;;;;;5027998;28;20450;-80
2021/12/22 09:48:58;;;;;;;21.52;11.57;;;-0.50;99.90;;;;;;5029163;28;20048;-79
2021/12/22 09:53:53;;;;;;;25.30;13.20;;;-0.40;99.90;;;;;;5030888;28;20030;-80
2021/12/22 09:56:27;;;;;;;28.10;13.70;;;-0.40;99.90;;;;;;5024384;28;20544;-80
2021/12/22 09:58:53;;;;;;;26.73;13.63;;;-0.40;99.90;;;;;;5021501;28;20029;-79
2021/12/22 10:01:23;;;;;;;25.20;13.45;;;-0.30;99.90;;;;;;5026320;28;20041;-80
2021/12/22 10:03:50;;;;;;;23.63;13.25;;;-0.20;99.90;;;;;;5026837;28;20446;-79
2021/12/22 10:06:16;;;;;;;22.65;11.95;;;-0.20;99.90;;;;;;5029169;28;20032;-82
2021/12/22 10:09:11;;;;;;;21.90;12.85;;;-0.20;99.90;;;;;;5027519;28;20037;-80
2021/12/22 10:11:44;;;;;;;25.30;12.45;;;-0.10;99.90;;;;;;5027548;28;20049;-81
2021/12/22 10:14:22;;;;;;;21.15;11.80;;;-0.10;99.90;;;;;;5027527;28;21380;-81
2021/12/22 10:16:51;;;;;;;22.20;12.00;;;0.10;99.90;;;;;;5035561;28;20045;-82
2021/12/22 10:19:17;;;;;;;23.83;12.23;;;0.10;99.90;;;;;;5045400;28;20124;-78
2021/12/22 10:21:55;;;;;;;22.27;12.32;;;-0.40;99.90;;;;;;5030381;28;20041;-79
2021/12/22 10:24:42;;;;;;;24.70;13.68;;;0.20;99.90;;;;;;5033718;28;20040;-79
2021/12/22 10:27:11;;;;;;;24.80;12.73;;;0.20;99.90;;;;;;5024474;28;20033;-81
2021/12/22 10:29:37;;;;;;;21.52;12.30;;;0.20;99.90;;;;;;5028291;28;20662;-79
2021/12/22 10:32:09;;;;;;;20.55;11.77;;;0.30;99.90;;;;;;5026618;28;20033;-83
2021/12/22 10:51:33;;;;;;;28.20;12.70;;;0.40;99.90;;;;;;6050281;22;20021;-78
2021/12/22 10:56:37;;;;;;;24.05;12.93;;;0.40;99.90;;;;;;5533825;22;20068;-79
2021/12/22 10:59:07;;;;;;;23.00;12.20;;;0.50;99.90;;;;;;4995186;28;20030;-80
2021/12/22 11:01:38;;;;;;;26.00;13.60;;;0.60;99.90;;;;;;4999558;28;20025;-80
2021/12/22 11:04:21;;;;;;;21.98;13.18;;;;;;;;;;4995627;28;20534;-79
2021/12/22 11:06:50;;;;;;;21.33;11.95;;;;;;;;;;4983868;28;20495;-79
2021/12/22 11:09:17;;;;;;;23.95;12.10;;;;;;;;;;4982184;28;20029;-80
2021/12/22 11:11:49;;;;;;;19.00;12.00;;;0.70;99.90;;;;;;4982252;28;20026;-79
2021/12/22 11:14:16;;;;;;;23.90;13.25;;;-0.40;99.90;;;;;;4984438;28;20495;-80
2021/12/22 11:17:06;;;;;;;22.00;12.23;;;0.60;99.90;;;;;;4994090;28;21122;-79
2021/12/22 11:19:56;;;;;;;23.10;12.68;;;0.60;99.90;;;;;;4982730;28;20045;-81
2021/12/22 11:22:38;;;;;;;24.52;12.75;;;0.70;99.90;;;;;;4988074;28;20043;-81
2021/12/22 11:25:11;;;;;;;23.20;12.95;;;0.80;99.90;;;;;;4986396;28;20034;-80
2021/12/22 11:27:38;;;;;;;24.45;12.77;;;0.80;99.90;;;;;;4990500;28;20060;-81
2021/12/22 11:30:04;;;;;;;23.88;13.00;;;0.80;99.90;;;;;;4985835;28;20038;-82
2021/12/22 11:32:32;;;;;;;22.73;11.70;;;0.80;99.90;;;;;;4986710;28;20026;-81
2021/12/22 11:35:05;;;;;;;22.00;13.00;;;1.00;99.90;;;;;;4985774;28;20101;-80
2021/12/22 11:37:31;;;;;;;24.38;11.32;;;1.00;99.90;;;;;;4986724;28;20049;-80
2021/12/22 11:39:58;;;;;;;23.88;11.90;;;1.10;99.90;;;;;;4988339;28;20491;-81
2021/12/22 11:42:30;;;;;;;33.17;16.92;;;1.00;99.90;;;;;;4982595;28;20031;-81
2021/12/22 11:45:00;;;;;;;22.17;11.90;;;1.00;99.90;;;;;;4983716;28;20031;-82
2021/12/22 11:47:26;;;;;;;25.48;13.18;;;1.10;99.90;;;;;;4982740;28;20034;-79
2021/12/22 11:49:58;;;;;;;24.05;12.80;;;1.00;99.90;;;;;;4983757;28;20026;-81
2021/12/22 11:52:31;;;;;;;23.63;12.75;;;1.00;99.90;;;;;;4995470;28;20044;-80
2021/12/22 11:55:24;;;;;;;23.92;12.63;;;1.10;99.90;;;;;;4980568;28;20134;-82
2021/12/22 11:57:53;;;;;;;24.30;12.77;;;1.10;99.90;;;;;;4983577;28;20053;-81
2021/12/22 12:00:34;;;;;;;22.48;12.20;;;1.20;99.90;;;;;;4980395;28;20027;-81
2021/12/22 12:03:33;;;;;;;24.70;12.43;;;1.20;99.90;;;;;;4981583;28;20038;-82
2021/12/22 12:06:09;;;;;;;23.80;12.00;;;1.20;99.90;;;;;;4983559;28;21334;-82
2021/12/22 12:08:41;;;;;;;23.27;12.25;;;1.30;99.90;;;;;;4981963;28;20041;-83
2021/12/22 12:11:14;;;;;;;20.50;11.95;;;1.30;99.90;;;;;;4986388;28;20031;-81
2021/12/22 12:14:00;;;;;;;22.38;12.32;;;2.10;99.90;;;;;;4985747;28;20027;-82
2021/12/22 12:22:36;;;;;;;23.40;11.97;;;1.60;99.90;;;;;;4988068;28;20092;-83
2021/12/22 12:25:07;;;;;;;20.88;11.80;;;1.60;99.90;;;;;;4992938;28;20022;-80
2021/12/22 12:27:43;;;;;;;23.00;13.13;;;1.70;99.90;;;;;;4994747;28;20034;-82
2021/12/22 12:30:15;;;;;;;26.20;13.63;;;1.60;99.90;;;;;;5004188;28;20181;-82
2021/12/22 12:32:40;;;;;;;22.60;12.23;;;1.60;99.90;;;;;;4993464;28;20033;-81
2021/12/22 12:35:26;;;;;;;23.77;12.35;;;1.60;99.90;;;;;;4996658;28;20026;-81
2021/12/22 12:38:15;;;;;;;20.17;12.70;;;1.50;99.90;;;;;;4991310;28;20030;-81
2021/12/22 12:41:00;;;;;;;22.23;12.20;;;1.60;99.90;;;;;;4986813;28;20030;-79
2021/12/22 12:43:44;;;;;;;24.88;13.95;;;1.60;99.90;;;;;;4987194;28;20625;-81
2021/12/22 12:46:19;;;;;;;22.58;12.60;;;1.50;99.90;;;;;;4984882;28;20396;-81
2021/12/22 12:48:49;;;;;;;21.67;12.27;;;2.60;99.90;;;;;;4994654;28;20128;-81
2021/12/22 12:51:30;;;;;;;24.63;12.23;;;1.80;99.90;;;;;;4993522;28;20371;-82
2021/12/22 12:54:03;;;;;;;23.40;12.68;;;1.80;99.90;;;;;;4992734;28;20081;-81
2021/12/22 12:56:33;;;;;;;22.60;12.50;;;-0.10;99.90;;;;;;4986542;28;21144;-81
2021/12/22 12:59:03;;;;;;;23.70;13.20;;;1.80;99.90;;;;;;4985387;28;20148;-82
2021/12/22 13:01:46;;;;;;;22.65;13.35;;;1.80;99.90;;;;;;4983843;28;20030;-82
2021/12/22 13:04:30;;;;;;;23.23;13.05;;;1.90;99.90;;;;;;4985944;28;20038;-82
2021/12/22 13:07:05;;;;;;;24.80;12.43;;;1.90;99.90;;;;;;4988985;28;20038;-81
2021/12/22 13:09:31;;;;;;;22.05;13.13;;;1.90;99.90;;;;;;4988355;28;20066;-81
2021/12/22 13:17:42;;;;;;;24.17;12.85;;;2.00;99.90;;;;;;4984661;28;20068;-81
2021/12/22 13:20:10;;;;;;;23.88;12.35;;;1.90;99.90;;;;;;4992418;28;20023;-80
2021/12/22 13:22:38;;;;;;;24.85;13.00;;;2.00;99.90;;;;;;4990454;28;20491;-80
2021/12/22 13:25:31;;;;;;;20.60;12.20;;;2.00;99.90;;;;;;4990050;28;20049;-82
2021/12/22 13:28:00;;;;;;;21.60;13.10;;;2.00;99.90;;;;;;4993523;28;20045;-83
2021/12/22 13:30:55;;;;;;;23.08;12.45;;;1.90;99.90;;;;;;4989699;28;20394;-81
2021/12/22 13:33:43;;;;;;;21.15;12.27;;;1.90;99.90;;;;;;4987488;28;20398;-82